Saint-Barthelemy, Canada
Current Conditions -  °F | °C
As of 5:00 AM on Wednesday 26 Nov 2014 (Local Time) from CYRQ Reporting Station
Clear Clear  
Wind Chill: 27°   Ceiling: Unl
Heat Index: 32°   Visibility: 9mi
Dew Point: 19°   Wind: 5mph
Humidity: 60%   Direction: 250°WSW
Pressure: 30.18"   Gusts: NA
Location:  46.18°N, 73.12°W
Report Text: CYRQ 261000Z AUTO 25004KT 220V290 9SM CLR M00/M07 A3018 RMK PRESRR SLP222
Loading
Personal Weather Stations






























Interactive Weather Map New forecast layout! Learn more

10-Day Weather Forecast

Advertisements
Track Severe Weather on mobile